sensor_id;sensor_type;location;lat;lon;timestamp;P1;P2;P0
69746;PMS7003;57018;50.278;19.134;2023-09-08T00:02:27;27.50;25.50;17.50
69746;PMS7003;57018;50.278;19.134;2023-09-08T00:04:55;31.00;29.50;20.00
69746;PMS7003;57018;50.278;19.134;2023-09-08T00:07:23;40.00;33.00;23.00
69746;PMS7003;57018;50.278;19.134;2023-09-08T00:09:51;30.50;29.00;19.50
69746;PMS7003;57018;50.278;19.134;2023-09-08T00:12:19;29.50;28.50;18.50
69746;PMS7003;57018;50.278;19.134;2023-09-08T00:14:47;32.00;29.00;20.00
69746;PMS7003;57018;50.278;19.134;2023-09-08T00:19:41;36.00;30.50;20.50
69746;PMS7003;57018;50.278;19.134;2023-09-08T00:22:09;35.00;32.00;21.00
69746;PMS7003;57018;50.278;19.134;2023-09-08T00:24:37;32.00;29.00;20.00
69746;PMS7003;57018;50.278;19.134;2023-09-08T00:27:05;32.50;30.00;20.50
69746;PMS7003;57018;50.278;19.134;2023-09-08T00:29:33;29.00;26.00;20.00
69746;PMS7003;57018;50.278;19.134;2023-09-08T00:32:00;38.50;32.50;23.00
69746;PMS7003;57018;50.278;19.134;2023-09-08T00:36:55;34.50;32.50;21.50
69746;PMS7003;57018;50.278;19.134;2023-09-08T00:39:23;35.00;32.00;21.00
69746;PMS7003;57018;50.278;19.134;2023-09-08T00:41:51;31.00;29.00;20.00
69746;PMS7003;57018;50.278;19.134;2023-09-08T00:44:18;36.50;32.50;22.00
69746;PMS7003;57018;50.278;19.134;2023-09-08T00:49:13;35.50;33.00;21.00
69746;PMS7003;57018;50.278;19.134;2023-09-08T00:51:41;38.00;32.50;22.50
69746;PMS7003;57018;50.278;19.134;2023-09-08T00:54:09;31.50;30.50;22.00
69746;PMS7003;57018;50.278;19.134;2023-09-08T00:56:37;31.00;29.50;20.00
69746;PMS7003;57018;50.278;19.134;2023-09-08T00:59:06;25.50;25.50;21.00
69746;PMS7003;57018;50.278;19.134;2023-09-08T01:01:35;31.00;30.00;20.00
69746;PMS7003;57018;50.278;19.134;2023-09-08T01:04:03;31.00;30.00;21.00
69746;PMS7003;57018;50.278;19.134;2023-09-08T01:06:31;31.00;30.00;20.00
69746;PMS7003;57018;50.278;19.134;2023-09-08T01:09:00;34.00;30.00;20.00
69746;PMS7003;57018;50.278;19.134;2023-09-08T01:11:28;36.00;32.00;21.00
69746;PMS7003;57018;50.278;19.134;2023-09-08T01:13:57;38.00;31.00;21.00
69746;PMS7003;57018;50.278;19.134;2023-09-08T01:16:25;39.00;33.50;23.00
69746;PMS7003;57018;50.278;19.134;2023-09-08T01:18:52;32.00;29.50;20.00
69746;PMS7003;57018;50.278;19.134;2023-09-08T01:24:26;38.00;33.00;22.00
69746;PMS7003;57018;50.278;19.134;2023-09-08T01:29:34;35.00;30.67;20.00
69746;PMS7003;57018;50.278;19.134;2023-09-08T01:32:04;29.00;28.00;20.00
69746;PMS7003;57018;50.278;19.134;2023-09-08T01:34:32;29.00;27.00;19.00
69746;PMS7003;57018;50.278;19.134;2023-09-08T01:39:30;34.50;32.50;22.00
69746;PMS7003;57018;50.278;19.134;2023-09-08T01:44:25;36.00;32.00;21.00
69746;PMS7003;57018;50.278;19.134;2023-09-08T01:46:52;31.67;30.33;20.33
69746;PMS7003;57018;50.278;19.134;2023-09-08T01:49:22;37.00;32.00;21.00
69746;PMS7003;57018;50.278;19.134;2023-09-08T01:51:51;39.50;33.00;21.00
69746;PMS7003;57018;50.278;19.134;2023-09-08T01:54:19;31.00;29.00;18.00
69746;PMS7003;57018;50.278;19.134;2023-09-08T01:56:47;36.00;33.00;22.00
69746;PMS7003;57018;50.278;19.134;2023-09-08T01:59:15;31.00;31.00;22.00
69746;PMS7003;57018;50.278;19.134;2023-09-08T02:04:09;12.00;11.00;3.50
69746;PMS7003;57018;50.278;19.134;2023-09-08T02:06:37;35.50;32.50;21.50
69746;PMS7003;57018;50.278;19.134;2023-09-08T02:09:05;35.00;29.00;17.00
69746;PMS7003;57018;50.278;19.134;2023-09-08T02:11:32;31.00;27.00;19.00
69746;PMS7003;57018;50.278;19.134;2023-09-08T02:14:00;28.00;26.00;19.00
69746;PMS7003;57018;50.278;19.134;2023-09-08T02:16:28;31.00;30.00;21.00
69746;PMS7003;57018;50.278;19.134;2023-09-08T02:18:56;33.00;31.00;20.00
69746;PMS7003;57018;50.278;19.134;2023-09-08T02:23:50;31.00;29.00;20.00
69746;PMS7003;57018;50.278;19.134;2023-09-08T02:26:18;35.00;31.25;20.25
69746;PMS7003;57018;50.278;19.134;2023-09-08T02:28:46;30.00;29.00;20.00
69746;PMS7003;57018;50.278;19.134;2023-09-08T02:33:40;32.00;31.00;20.00
69746;PMS7003;57018;50.278;19.134;2023-09-08T02:36:08;35.00;31.00;23.00
69746;PMS7003;57018;50.278;19.134;2023-09-08T02:38:36;35.00;32.00;20.00
69746;PMS7003;57018;50.278;19.134;2023-09-08T02:41:04;32.50;31.00;21.00
69746;PMS7003;57018;50.278;19.134;2023-09-08T02:43:32;35.00;32.50;22.00
69746;PMS7003;57018;50.278;19.134;2023-09-08T02:45:59;37.00;33.00;22.00
69746;PMS7003;57018;50.278;19.134;2023-09-08T02:48:27;35.00;33.00;22.00
69746;PMS7003;57018;50.278;19.134;2023-09-08T02:50:55;36.50;32.50;22.50
69746;PMS7003;57018;50.278;19.134;2023-09-08T02:53:23;35.00;31.00;21.50
69746;PMS7003;57018;50.278;19.134;2023-09-08T02:55:54;37.00;31.00;23.00
69746;PMS7003;57018;50.278;19.134;2023-09-08T02:58:22;36.00;33.00;23.00
69746;PMS7003;57018;50.278;19.134;2023-09-08T03:00:50;36.50;32.50;22.00
69746;PMS7003;57018;50.278;19.134;2023-09-08T03:03:18;37.00;33.00;22.00
69746;PMS7003;57018;50.278;19.134;2023-09-08T03:05:46;37.00;31.00;21.00
69746;PMS7003;57018;50.278;19.134;2023-09-08T03:08:14;42.00;37.00;24.00
69746;PMS7003;57018;50.278;19.134;2023-09-08T03:10:42;41.50;33.00;24.00
69746;PMS7003;57018;50.278;19.134;2023-09-08T03:13:10;37.00;34.50;23.50
69746;PMS7003;57018;50.278;19.134;2023-09-08T03:15:38;40.00;34.00;23.00
69746;PMS7003;57018;50.278;19.134;2023-09-08T03:18:06;39.50;35.50;23.50
69746;PMS7003;57018;50.278;19.134;2023-09-08T03:23:00;36.00;33.00;22.00
69746;PMS7003;57018;50.278;19.134;2023-09-08T03:25:28;39.50;34.00;24.00
69746;PMS7003;57018;50.278;19.134;2023-09-08T03:27:56;39.00;35.00;24.00
69746;PMS7003;57018;50.278;19.134;2023-09-08T03:30:23;37.50;32.50;22.50
69746;PMS7003;57018;50.278;19.134;2023-09-08T03:32:51;30.00;28.00;18.00
69746;PMS7003;57018;50.278;19.134;2023-09-08T03:35:19;42.00;34.50;23.50
69746;PMS7003;57018;50.278;19.134;2023-09-08T03:40:14;34.00;30.00;22.00
69746;PMS7003;57018;50.278;19.134;2023-09-08T03:42:42;37.00;33.00;23.50
69746;PMS7003;57018;50.278;19.134;2023-09-08T03:45:10;35.00;31.00;22.50
69746;PMS7003;57018;50.278;19.134;2023-09-08T03:47:38;48.00;37.00;23.00
69746;PMS7003;57018;50.278;19.134;2023-09-08T03:50:06;44.00;38.00;24.00
69746;PMS7003;57018;50.278;19.134;2023-09-08T03:52:36;39.00;34.00;24.00
69746;PMS7003;57018;50.278;19.134;2023-09-08T03:55:04;44.00;37.00;23.50
69746;PMS7003;57018;50.278;19.134;2023-09-08T03:57:33;39.00;34.50;24.00
69746;PMS7003;57018;50.278;19.134;2023-09-08T04:00:00;37.50;33.50;23.50
69746;PMS7003;57018;50.278;19.134;2023-09-08T04:02:30;40.50;35.50;23.00
69746;PMS7003;57018;50.278;19.134;2023-09-08T04:04:58;38.00;35.00;25.00
69746;PMS7003;57018;50.278;19.134;2023-09-08T04:09:53;31.00;30.00;21.00
69746;PMS7003;57018;50.278;19.134;2023-09-08T04:12:21;41.00;35.00;23.00
69746;PMS7003;57018;50.278;19.134;2023-09-08T04:14:48;33.00;32.00;24.00
69746;PMS7003;57018;50.278;19.134;2023-09-08T04:17:16;38.00;32.00;21.00
69746;PMS7003;57018;50.278;19.134;2023-09-08T04:19:44;38.00;33.00;23.00
69746;PMS7003;57018;50.278;19.134;2023-09-08T04:22:12;38.00;32.00;21.00
69746;PMS7003;57018;50.278;19.134;2023-09-08T04:27:07;45.50;37.00;26.50
69746;PMS7003;57018;50.278;19.134;2023-09-08T04:29:35;37.00;34.00;24.00
69746;PMS7003;57018;50.278;19.134;2023-09-08T04:32:03;45.00;34.00;23.00
69746;PMS7003;57018;50.278;19.134;2023-09-08T04:34:36;39.50;33.00;23.50
69746;PMS7003;57018;50.278;19.134;2023-09-08T04:37:05;36.50;33.50;23.50
69746;PMS7003;57018;50.278;19.134;2023-09-08T04:39:33;39.00;34.00;23.00
69746;PMS7003;57018;50.278;19.134;2023-09-08T04:42:01;34.00;32.50;22.00
69746;PMS7003;57018;50.278;19.134;2023-09-08T04:44:30;35.00;31.00;21.00
69746;PMS7003;57018;50.278;19.134;2023-09-08T04:46:58;37.00;32.00;22.00
69746;PMS7003;57018;50.278;19.134;2023-09-08T04:49:26;44.00;34.00;23.00
69746;PMS7003;57018;50.278;19.134;2023-09-08T04:54:21;38.00;33.00;22.00
69746;PMS7003;57018;50.278;19.134;2023-09-08T04:56:52;36.00;33.00;23.50
69746;PMS7003;57018;50.278;19.134;2023-09-08T04:59:20;41.33;36.33;24.00
69746;PMS7003;57018;50.278;19.134;2023-09-08T05:01:49;39.50;36.00;24.50
69746;PMS7003;57018;50.278;19.134;2023-09-08T05:04:17;42.00;37.00;24.00
69746;PMS7003;57018;50.278;19.134;2023-09-08T05:06:45;50.50;41.50;27.00
69746;PMS7003;57018;50.278;19.134;2023-09-08T05:09:13;47.00;38.00;24.00
69746;PMS7003;57018;50.278;19.134;2023-09-08T05:11:41;48.00;40.00;28.00
69746;PMS7003;57018;50.278;19.134;2023-09-08T05:14:09;47.00;39.00;28.00
69746;PMS7003;57018;50.278;19.134;2023-09-08T05:16:37;41.50;35.50;25.00
69746;PMS7003;57018;50.278;19.134;2023-09-08T05:19:12;44.00;38.00;24.00
69746;PMS7003;57018;50.278;19.134;2023-09-08T05:21:40;42.00;40.00;29.00
69746;PMS7003;57018;50.278;19.134;2023-09-08T05:24:09;45.50;35.50;23.00
69746;PMS7003;57018;50.278;19.134;2023-09-08T05:26:37;49.00;41.00;28.00
69746;PMS7003;57018;50.278;19.134;2023-09-08T05:29:07;42.00;39.00;28.00
69746;PMS7003;57018;50.278;19.134;2023-09-08T05:34:02;46.00;39.50;26.00
69746;PMS7003;57018;50.278;19.134;2023-09-08T05:36:30;47.00;39.50;28.50
69746;PMS7003;57018;50.278;19.134;2023-09-08T05:39:02;40.00;39.00;24.00
69746;PMS7003;57018;50.278;19.134;2023-09-08T05:41:30;34.50;33.00;22.50
69746;PMS7003;57018;50.278;19.134;2023-09-08T05:43:58;39.00;34.50;23.00
69746;PMS7003;57018;50.278;19.134;2023-09-08T05:46:26;35.00;32.00;20.00
69746;PMS7003;57018;50.278;19.134;2023-09-08T05:48:54;35.00;32.00;21.00
69746;PMS7003;57018;50.278;19.134;2023-09-08T05:51:24;37.50;33.50;22.50
69746;PMS7003;57018;50.278;19.134;2023-09-08T05:53:51;40.00;31.00;20.00
69746;PMS7003;57018;50.278;19.134;2023-09-08T05:56:19;37.00;36.00;25.00
69746;PMS7003;57018;50.278;19.134;2023-09-08T05:58:47;39.50;34.50;23.50
69746;PMS7003;57018;50.278;19.134;2023-09-08T06:01:15;43.50;35.00;23.50
69746;PMS7003;57018;50.278;19.134;2023-09-08T06:06:10;40.00;32.00;22.00
69746;PMS7003;57018;50.278;19.134;2023-09-08T06:08:38;33.00;31.50;22.00
69746;PMS7003;57018;50.278;19.134;2023-09-08T06:11:05;40.00;34.00;21.00
69746;PMS7003;57018;50.278;19.134;2023-09-08T06:13:33;39.00;33.00;22.00
69746;PMS7003;57018;50.278;19.134;2023-09-08T06:16:01;35.00;33.50;22.50
69746;PMS7003;57018;50.278;19.134;2023-09-08T06:18:29;30.50;29.50;21.50
69746;PMS7003;57018;50.278;19.134;2023-09-08T06:20:57;43.50;35.50;23.50
69746;PMS7003;57018;50.278;19.134;2023-09-08T06:23:25;36.00;32.00;21.00
69746;PMS7003;57018;50.278;19.134;2023-09-08T06:25:56;36.50;32.00;21.50
69746;PMS7003;57018;50.278;19.134;2023-09-08T06:28:26;26.00;24.00;20.00
69746;PMS7003;57018;50.278;19.134;2023-09-08T06:30:54;36.50;34.00;23.00
69746;PMS7003;57018;50.278;19.134;2023-09-08T06:33:22;32.00;28.00;19.00
69746;PMS7003;57018;50.278;19.134;2023-09-08T06:35:50;30.00;29.33;19.33
69746;PMS7003;57018;50.278;19.134;2023-09-08T06:38:19;31.00;28.00;21.00
69746;PMS7003;57018;50.278;19.134;2023-09-08T06:40:47;34.50;32.00;20.50
69746;PMS7003;57018;50.278;19.134;2023-09-08T06:43:15;30.50;26.00;19.00
69746;PMS7003;57018;50.278;19.134;2023-09-08T06:45:46;28.50;28.50;18.00
69746;PMS7003;57018;50.278;19.134;2023-09-08T06:50:42;25.00;24.00;17.00
69746;PMS7003;57018;50.278;19.134;2023-09-08T06:53:10;32.33;29.33;18.33
69746;PMS7003;57018;50.278;19.134;2023-09-08T06:55:38;33.50;30.00;21.50
69746;PMS7003;57018;50.278;19.134;2023-09-08T06:58:06;25.00;24.00;19.00
69746;PMS7003;57018;50.278;19.134;2023-09-08T07:00:34;28.50;26.50;18.00
69746;PMS7003;57018;50.278;19.134;2023-09-08T07:03:02;26.00;25.50;17.50
69746;PMS7003;57018;50.278;19.134;2023-09-08T07:05:30;29.50;27.50;18.50
69746;PMS7003;57018;50.278;19.134;2023-09-08T07:10:25;28.00;26.00;17.00
69746;PMS7003;57018;50.278;19.134;2023-09-08T07:12:53;26.00;24.00;18.00
69746;PMS7003;57018;50.278;19.134;2023-09-08T07:15:21;20.00;19.00;17.50
69746;PMS7003;57018;50.278;19.134;2023-09-08T07:20:16;24.00;22.00;15.00
69746;PMS7003;57018;50.278;19.134;2023-09-08T07:22:44;24.00;24.00;15.00
69746;PMS7003;57018;50.278;19.134;2023-09-08T07:25:13;25.00;22.00;16.00
69746;PMS7003;57018;50.278;19.134;2023-09-08T07:27:41;25.50;24.50;17.50
69746;PMS7003;57018;50.278;19.134;2023-09-08T07:30:09;24.00;21.00;16.00
69746;PMS7003;57018;50.278;19.134;2023-09-08T07:32:38;20.00;19.00;16.00
69746;PMS7003;57018;50.278;19.134;2023-09-08T07:35:06;26.00;23.00;17.00
69746;PMS7003;57018;50.278;19.134;2023-09-08T07:37:40;27.00;22.00;16.00
69746;PMS7003;57018;50.278;19.134;2023-09-08T07:40:09;26.00;25.50;17.50
69746;PMS7003;57018;50.278;19.134;2023-09-08T07:42:38;23.00;20.00;14.00
69746;PMS7003;57018;50.278;19.134;2023-09-08T07:45:07;33.00;27.00;21.00
69746;PMS7003;57018;50.278;19.134;2023-09-08T07:47:36;25.00;24.50;18.50
69746;PMS7003;57018;50.278;19.134;2023-09-08T07:50:17;29.00;25.00;16.00
69746;PMS7003;57018;50.278;19.134;2023-09-08T07:52:47;30.00;27.50;17.50
69746;PMS7003;57018;50.278;19.134;2023-09-08T08:00:12;23.00;19.67;14.00
69746;PMS7003;57018;50.278;19.134;2023-09-08T08:02:42;23.50;23.50;17.00
69746;PMS7003;57018;50.278;19.134;2023-09-08T08:05:12;24.00;22.50;14.50
69746;PMS7003;57018;50.278;19.134;2023-09-08T08:07:40;27.00;24.00;14.00
69746;PMS7003;57018;50.278;19.134;2023-09-08T08:10:09;24.50;20.50;14.00
69746;PMS7003;57018;50.278;19.134;2023-09-08T08:12:38;20.00;19.00;13.00
69746;PMS7003;57018;50.278;19.134;2023-09-08T08:15:08;22.00;20.00;12.50
69746;PMS7003;57018;50.278;19.134;2023-09-08T08:17:36;19.00;19.00;13.00
69746;PMS7003;57018;50.278;19.134;2023-09-08T08:20:05;21.00;19.50;14.00
69746;PMS7003;57018;50.278;19.134;2023-09-08T08:22:36;18.00;18.00;12.00
69746;PMS7003;57018;50.278;19.134;2023-09-08T08:27:31;19.00;19.00;13.00
69746;PMS7003;57018;50.278;19.134;2023-09-08T08:29:59;21.00;20.00;14.00
69746;PMS7003;57018;50.278;19.134;2023-09-08T08:32:27;19.00;19.00;14.00
69746;PMS7003;57018;50.278;19.134;2023-09-08T08:34:55;19.00;19.00;13.00
69746;PMS7003;57018;50.278;19.134;2023-09-08T08:37:24;21.00;19.00;12.00
69746;PMS7003;57018;50.278;19.134;2023-09-08T08:39:53;19.00;18.50;14.00
69746;PMS7003;57018;50.278;19.134;2023-09-08T08:42:21;26.00;24.00;16.00
69746;PMS7003;57018;50.278;19.134;2023-09-08T08:47:16;18.50;18.50;13.00
69746;PMS7003;57018;50.278;19.134;2023-09-08T08:49:45;13.00;13.00;11.00
69746;PMS7003;57018;50.278;19.134;2023-09-08T08:52:15;21.50;19.00;13.50
69746;PMS7003;57018;50.278;19.134;2023-09-08T08:54:44;16.00;16.00;13.00
69746;PMS7003;57018;50.278;19.134;2023-09-08T08:57:12;1.00;1.00;0.00
69746;PMS7003;57018;50.278;19.134;2023-09-08T08:59:40;19.50;19.00;12.00
69746;PMS7003;57018;50.278;19.134;2023-09-08T09:02:08;19.00;17.00;14.00
69746;PMS7003;57018;50.278;19.134;2023-09-08T09:07:04;15.00;15.00;10.67
69746;PMS7003;57018;50.278;19.134;2023-09-08T09:09:33;17.50;15.50;13.00
69746;PMS7003;57018;50.278;19.134;2023-09-08T09:12:01;18.00;18.00;13.50
69746;PMS7003;57018;50.278;19.134;2023-09-08T09:14:32;19.00;17.00;14.00
69746;PMS7003;57018;50.278;19.134;2023-09-08T09:17:00;19.00;16.00;13.00
69746;PMS7003;57018;50.278;19.134;2023-09-08T09:19:31;16.50;16.50;11.00
69746;PMS7003;57018;50.278;19.134;2023-09-08T09:21:59;23.00;18.00;14.00
69746;PMS7003;57018;50.278;19.134;2023-09-08T09:24:30;17.00;15.00;10.00
69746;PMS7003;57018;50.278;19.134;2023-09-08T09:27:00;18.33;17.00;11.33
69746;PMS7003;57018;50.278;19.134;2023-09-08T09:29:28;19.00;17.50;12.50
69746;PMS7003;57018;50.278;19.134;2023-09-08T09:31:56;16.00;16.00;13.50
69746;PMS7003;57018;50.278;19.134;2023-09-08T09:34:28;18.00;16.00;12.00
69746;PMS7003;57018;50.278;19.134;2023-09-08T09:36:56;17.00;17.00;15.00
69746;PMS7003;57018;50.278;19.134;2023-09-08T09:39:25;12.50;12.50;11.00
69746;PMS7003;57018;50.278;19.134;2023-09-08T09:41:54;17.00;15.00;11.00
69746;PMS7003;57018;50.278;19.134;2023-09-08T09:46:51;21.00;18.00;14.00
69746;PMS7003;57018;50.278;19.134;2023-09-08T09:49:19;18.00;18.00;13.00
69746;PMS7003;57018;50.278;19.134;2023-09-08T09:51:48;14.00;14.00;11.00
69746;PMS7003;57018;50.278;19.134;2023-09-08T09:54:17;15.00;14.00;9.50
69746;PMS7003;57018;50.278;19.134;2023-09-08T09:56:45;17.00;15.00;11.00
69746;PMS7003;57018;50.278;19.134;2023-09-08T09:59:13;17.00;16.50;10.00
69746;PMS7003;57018;50.278;19.134;2023-09-08T10:01:41;13.00;11.50;8.50
69746;PMS7003;57018;50.278;19.134;2023-09-08T10:04:10;17.00;17.00;13.50
69746;PMS7003;57018;50.278;19.134;2023-09-08T10:06:38;15.00;15.00;12.00
69746;PMS7003;57018;50.278;19.134;2023-09-08T10:09:07;14.00;12.00;8.00
69746;PMS7003;57018;50.278;19.134;2023-09-08T10:11:41;13.00;13.00;10.00
69746;PMS7003;57018;50.278;19.134;2023-09-08T10:14:13;18.00;16.00;10.00
69746;PMS7003;57018;50.278;19.134;2023-09-08T10:16:43;18.50;17.00;12.00
69746;PMS7003;57018;50.278;19.134;2023-09-08T10:19:11;16.50;15.50;11.50
69746;PMS7003;57018;50.278;19.134;2023-09-08T10:21:40;16.50;15.50;10.50
69746;PMS7003;57018;50.278;19.134;2023-09-08T10:24:11;12.00;12.00;9.00
69746;PMS7003;57018;50.278;19.134;2023-09-08T10:26:44;13.00;13.00;10.00
69746;PMS7003;57018;50.278;19.134;2023-09-08T10:29:18;17.00;17.00;11.00
69746;PMS7003;57018;50.278;19.134;2023-09-08T10:31:46;18.00;14.00;12.00
69746;PMS7003;57018;50.278;19.134;2023-09-08T10:34:14;14.00;13.00;10.00
69746;PMS7003;57018;50.278;19.134;2023-09-08T10:36:44;16.00;15.00;10.00
69746;PMS7003;57018;50.278;19.134;2023-09-08T10:49:50;18.50;16.50;11.00
69746;PMS7003;57018;50.278;19.134;2023-09-08T10:52:23;21.00;17.00;14.00
69746;PMS7003;57018;50.278;19.134;2023-09-08T10:54:52;16.00;15.50;11.50
69746;PMS7003;57018;50.278;19.134;2023-09-08T10:57:21;11.50;11.50;9.00
69746;PMS7003;57018;50.278;19.134;2023-09-08T10:59:51;17.00;16.50;12.50
69746;PMS7003;57018;50.278;19.134;2023-09-08T11:02:32;14.00;13.00;9.00
69746;PMS7003;57018;50.278;19.134;2023-09-08T11:05:01;16.00;16.00;12.50
69746;PMS7003;57018;50.278;19.134;2023-09-08T11:07:31;15.00;15.00;12.00
69746;PMS7003;57018;50.278;19.134;2023-09-08T11:09:59;17.50;16.00;12.50
69746;PMS7003;57018;50.278;19.134;2023-09-08T11:12:27;14.00;13.00;10.00
69746;PMS7003;57018;50.278;19.134;2023-09-08T11:14:55;14.00;14.00;10.00
69746;PMS7003;57018;50.278;19.134;2023-09-08T11:17:25;17.00;15.00;11.00
69746;PMS7003;57018;50.278;19.134;2023-09-08T11:19:54;14.50;12.50;9.50
69746;PMS7003;57018;50.278;19.134;2023-09-08T11:24:50;15.50;14.00;10.00
69746;PMS7003;57018;50.278;19.134;2023-09-08T11:27:18;11.50;11.50;9.00
69746;PMS7003;57018;50.278;19.134;2023-09-08T11:32:14;16.00;14.00;10.00
69746;PMS7003;57018;50.278;19.134;2023-09-08T11:34:42;16.00;15.00;11.00
69746;PMS7003;57018;50.278;19.134;2023-09-08T11:37:10;17.50;16.50;11.50
69746;PMS7003;57018;50.278;19.134;2023-09-08T11:39:39;16.00;12.50;10.50
69746;PMS7003;57018;50.278;19.134;2023-09-08T11:44:35;19.00;14.50;9.50
69746;PMS7003;57018;50.278;19.134;2023-09-08T11:47:04;13.00;12.00;9.00
69746;PMS7003;57018;50.278;19.134;2023-09-08T11:49:35;15.00;13.00;9.50
69746;PMS7003;57018;50.278;19.134;2023-09-08T11:52:04;13.00;12.00;10.00
69746;PMS7003;57018;50.278;19.134;2023-09-08T11:54:34;13.00;13.00;10.00
69746;PMS7003;57018;50.278;19.134;2023-09-08T11:57:03;15.00;14.00;10.00
69746;PMS7003;57018;50.278;19.134;2023-09-08T11:59:34;15.00;13.00;10.00
69746;PMS7003;57018;50.278;19.134;2023-09-08T12:02:02;17.00;14.00;10.00
69746;PMS7003;57018;50.278;19.134;2023-09-08T12:04:30;15.50;14.00;10.50
69746;PMS7003;57018;50.278;19.134;2023-09-08T12:07:02;14.00;14.00;10.00
69746;PMS7003;57018;50.278;19.134;2023-09-08T12:09:30;15.00;13.00;9.50
69746;PMS7003;57018;50.278;19.134;2023-09-08T12:11:59;12.50;12.50;8.50
69746;PMS7003;57018;50.278;19.134;2023-09-08T12:14:40;11.00;11.00;9.00
69746;PMS7003;57018;50.278;19.134;2023-09-08T12:19:35;14.00;12.00;8.00
69746;PMS7003;57018;50.278;19.134;2023-09-08T12:22:04;11.00;11.00;9.00
69746;PMS7003;57018;50.278;19.134;2023-09-08T12:24:50;12.50;11.00;9.00
69746;PMS7003;57018;50.278;19.134;2023-09-08T12:27:23;16.00;14.00;10.00
69746;PMS7003;57018;50.278;19.134;2023-09-08T12:29:54;14.00;13.00;8.00
69746;PMS7003;57018;50.278;19.134;2023-09-08T12:32:22;14.33;12.33;9.00
69746;PMS7003;57018;50.278;19.134;2023-09-08T12:34:51;12.00;11.00;8.00
69746;PMS7003;57018;50.278;19.134;2023-09-08T12:37:23;10.00;10.00;8.00
69746;PMS7003;57018;50.278;19.134;2023-09-08T12:39:53;14.00;13.00;8.00
69746;PMS7003;57018;50.278;19.134;2023-09-08T12:42:21;12.50;12.50;8.50
69746;PMS7003;57018;50.278;19.134;2023-09-08T12:44:51;11.00;11.00;8.00
69746;PMS7003;57018;50.278;19.134;2023-09-08T12:47:19;11.00;11.00;9.00
69746;PMS7003;57018;50.278;19.134;2023-09-08T12:49:48;13.00;11.00;9.00
69746;PMS7003;57018;50.278;19.134;2023-09-08T12:52:16;14.00;13.00;10.00
69746;PMS7003;57018;50.278;19.134;2023-09-08T12:54:44;13.00;12.00;9.00
69746;PMS7003;57018;50.278;19.134;2023-09-08T12:59:38;14.00;13.00;11.00
69746;PMS7003;57018;50.278;19.134;2023-09-08T13:02:06;17.00;17.00;12.00
69746;PMS7003;57018;50.278;19.134;2023-09-08T13:04:34;17.00;16.00;11.00
69746;PMS7003;57018;50.278;19.134;2023-09-08T13:07:02;14.00;13.00;10.00
69746;PMS7003;57018;50.278;19.134;2023-09-08T13:09:30;11.00;9.00;3.00
69746;PMS7003;57018;50.278;19.134;2023-09-08T13:11:58;14.50;14.00;10.50
69746;PMS7003;57018;50.278;19.134;2023-09-08T13:14:26;11.50;11.00;9.00
69746;PMS7003;57018;50.278;19.134;2023-09-08T13:16:54;13.00;12.00;8.00
69746;PMS7003;57018;50.278;19.134;2023-09-08T13:19:21;14.00;13.00;10.00
69746;PMS7003;57018;50.278;19.134;2023-09-08T13:21:49;17.00;17.00;11.00
69746;PMS7003;57018;50.278;19.134;2023-09-08T13:24:17;14.50;12.00;9.00
69746;PMS7003;57018;50.278;19.134;2023-09-08T13:26:46;14.00;13.50;9.00
69746;PMS7003;57018;50.278;19.134;2023-09-08T13:29:15;15.00;15.00;12.00
69746;PMS7003;57018;50.278;19.134;2023-09-08T13:31:44;13.00;10.00;8.00
69746;PMS7003;57018;50.278;19.134;2023-09-08T13:34:12;15.00;13.00;10.00
69746;PMS7003;57018;50.278;19.134;2023-09-08T13:36:40;18.00;12.50;9.50
69746;PMS7003;57018;50.278;19.134;2023-09-08T13:39:08;17.00;16.00;11.00
69746;PMS7003;57018;50.278;19.134;2023-09-08T13:41:45;13.00;13.00;9.00
69746;PMS7003;57018;50.278;19.134;2023-09-08T13:44:14;13.00;11.50;9.00
69746;PMS7003;57018;50.278;19.134;2023-09-08T13:46:42;11.50;11.50;9.50
69746;PMS7003;57018;50.278;19.134;2023-09-08T13:49:09;16.00;14.00;10.00
69746;PMS7003;57018;50.278;19.134;2023-09-08T13:51:37;15.00;15.00;13.00
69746;PMS7003;57018;50.278;19.134;2023-09-08T13:54:05;18.00;15.50;11.50
69746;PMS7003;57018;50.278;19.134;2023-09-08T13:56:33;17.00;14.00;10.00
69746;PMS7003;57018;50.278;19.134;2023-09-08T13:59:01;15.00;14.00;9.00
69746;PMS7003;57018;50.278;19.134;2023-09-08T14:01:29;14.00;14.00;10.00
69746;PMS7003;57018;50.278;19.134;2023-09-08T14:03:59;19.00;16.00;13.00
69746;PMS7003;57018;50.278;19.134;2023-09-08T14:06:27;13.00;12.00;9.00
69746;PMS7003;57018;50.278;19.134;2023-09-08T14:08:55;14.00;13.50;10.50
69746;PMS7003;57018;50.278;19.134;2023-09-08T14:11:23;15.00;15.00;11.00
69746;PMS7003;57018;50.278;19.134;2023-09-08T14:13:51;16.00;16.00;11.00
69746;PMS7003;57018;50.278;19.134;2023-09-08T14:18:46;13.00;13.00;10.00
69746;PMS7003;57018;50.278;19.134;2023-09-08T14:21:13;16.00;15.00;10.00
69746;PMS7003;57018;50.278;19.134;2023-09-08T14:23:41;16.00;13.00;10.00
69746;PMS7003;57018;50.278;19.134;2023-09-08T14:26:09;19.00;18.50;12.50
69746;PMS7003;57018;50.278;19.134;2023-09-08T14:28:37;12.00;12.00;8.00
69746;PMS7003;57018;50.278;19.134;2023-09-08T14:31:05;10.50;10.50;9.50
69746;PMS7003;57018;50.278;19.134;2023-09-08T14:33:33;16.00;15.00;11.00
69746;PMS7003;57018;50.278;19.134;2023-09-08T14:36:00;15.00;15.00;10.00
69746;PMS7003;57018;50.278;19.134;2023-09-08T14:38:28;16.00;16.00;12.00
69746;PMS7003;57018;50.278;19.134;2023-09-08T14:40:57;14.00;12.00;8.00
69746;PMS7003;57018;50.278;19.134;2023-09-08T14:43:26;15.00;15.00;10.00
69746;PMS7003;57018;50.278;19.134;2023-09-08T14:45:55;16.00;14.00;10.50
69746;PMS7003;57018;50.278;19.134;2023-09-08T14:48:23;18.00;15.00;11.00
69746;PMS7003;57018;50.278;19.134;2023-09-08T14:50:51;16.50;16.00;12.00
69746;PMS7003;57018;50.278;19.134;2023-09-08T14:55:47;16.00;13.00;11.00
69746;PMS7003;57018;50.278;19.134;2023-09-08T14:58:15;17.50;15.50;11.50
69746;PMS7003;57018;50.278;19.134;2023-09-08T15:00:44;13.00;12.50;9.00
69746;PMS7003;57018;50.278;19.134;2023-09-08T15:03:12;12.00;12.00;10.00
69746;PMS7003;57018;50.278;19.134;2023-09-08T15:05:40;14.00;14.00;10.00
69746;PMS7003;57018;50.278;19.134;2023-09-08T15:08:08;15.00;14.67;11.00
69746;PMS7003;57018;50.278;19.134;2023-09-08T15:10:36;16.00;14.00;10.00
69746;PMS7003;57018;50.278;19.134;2023-09-08T15:13:04;17.50;15.00;10.00
69746;PMS7003;57018;50.278;19.134;2023-09-08T15:15:32;15.00;11.00;9.00
69746;PMS7003;57018;50.278;19.134;2023-09-08T15:17:59;15.00;13.50;11.00